sim
Sign-in with your pilot id or email,
or register
Callsign
Passwort

Schedule Details

Flight Number: RYR5142 (1)
Departure: Karlsruhe/Baden-Baden Airport (EDSB) at 08:35
Arrival: Thessaloniki International Airport (LGTS) at 11:10
Route: Ryanair Passenger Schedule. Enter filed route here before submitting Pirep.

Weather Information
Getting current METAR information for EDSB 252150Z AUTO 00000KT 9999 BKN050/// 11/06 Q1011
Getting current METAR information for LGTS 252150Z 00000KT CAVOK 15/12 Q1020 NOSIG

Schedule Frequency

Route Map